Aviation Digital Data Service (ADDS)

Output produced by METARs form (1336 UTC 23 January 2019)
found at http://www.aviationweather.gov/metar/data/
 
Forecast for: WMKI (IPOH , MY)
Text: TAF WMKI 231100Z 2312/2412 VRB03KT 9999 FEW030
Forecast period: 1200 UTC 23 January 2019 to 0600 UTC 24 January 2019
Forecast type: FROM: standard forecast or significant change
Winds: variable direction winds at 3 MPH (3 knots; 1.5 m/s)
Visibility: 6 or more miles 10+ km)
Ceiling: at least 12,000 feet AGL
Clouds: few clouds at 3000 feet AGL
Weather: no significant weather forecast for this period
Text: BECMG 2406/2408 30010KT FEW020
Forecast period: 0600 to 1200 UTC 24 January 2019
Forecast type: BECOMING: Conditions expected to become as follows by 0800 UTC 24 January 2019
Winds: from the WNW (300 degrees) at 12 MPH (10 knots; 5.1 m/s)
Visibility: 6 or more miles 10+ km)
Ceiling: at least 12,000 feet AGL
Clouds: few clouds at 2000 feet AGL
Weather: no significant weather forecast for this period